sensor_id;sensor_type;location;lat;lon;timestamp;pressure;altitude;pressure_sealevel;temperature;humidity
14067;BME280;7108;42.684;23.350;2023-04-04T00:00:18;93960.66;;;9.08;100.00
14067;BME280;7108;42.684;23.350;2023-04-04T00:02:44;93951.06;;;9.10;100.00
14067;BME280;7108;42.684;23.350;2023-04-04T00:05:10;93953.75;;;9.07;100.00
14067;BME280;7108;42.684;23.350;2023-04-04T00:07:35;93965.31;;;9.17;100.00
14067;BME280;7108;42.684;23.350;2023-04-04T00:10:01;93964.50;;;9.10;100.00
14067;BME280;7108;42.684;23.350;2023-04-04T00:12:26;93964.13;;;9.12;100.00
14067;BME280;7108;42.684;23.350;2023-04-04T00:14:53;93963.38;;;9.11;100.00
14067;BME280;7108;42.684;23.350;2023-04-04T00:17:18;93975.66;;;9.19;100.00
14067;BME280;7108;42.684;23.350;2023-04-04T00:19:44;93974.16;;;9.28;100.00
14067;BME280;7108;42.684;23.350;2023-04-04T00:22:10;93973.81;;;9.37;100.00
14067;BME280;7108;42.684;23.350;2023-04-04T00:24:37;93973.81;;;9.37;100.00
14067;BME280;7108;42.684;23.350;2023-04-04T00:27:03;93961.53;;;9.39;100.00
14067;BME280;7108;42.684;23.350;2023-04-04T00:29:28;93960.03;;;9.45;100.00
14067;BME280;7108;42.684;23.350;2023-04-04T00:31:54;93951.59;;;9.50;100.00
14067;BME280;7108;42.684;23.350;2023-04-04T00:34:19;93959.63;;;9.47;100.00
14067;BME280;7108;42.684;23.350;2023-04-04T00:36:45;93958.50;;;9.51;100.00
14067;BME280;7108;42.684;23.350;2023-04-04T00:39:12;93953.50;;;9.43;100.00
14067;BME280;7108;42.684;23.350;2023-04-04T00:41:37;93940.41;;;9.34;100.00
14067;BME280;7108;42.684;23.350;2023-04-04T00:44:03;93937.31;;;9.32;100.00
14067;BME280;7108;42.684;23.350;2023-04-04T00:46:33;93929.28;;;9.36;100.00
14067;BME280;7108;42.684;23.350;2023-04-04T00:48:58;93926.22;;;9.41;100.00
14067;BME280;7108;42.684;23.350;2023-04-04T00:51:24;93917.75;;;9.39;100.00
14067;BME280;7108;42.684;23.350;2023-04-04T00:53:49;93921.59;;;9.38;100.00
14067;BME280;7108;42.684;23.350;2023-04-04T00:56:15;93913.94;;;9.43;100.00
14067;BME280;7108;42.684;23.350;2023-04-04T00:58:42;93918.94;;;9.48;100.00
14067;BME280;7108;42.684;23.350;2023-04-04T01:01:08;93915.50;;;9.51;100.00
14067;BME280;7108;42.684;23.350;2023-04-04T01:03:35;93917.41;;;9.58;100.00
14067;BME280;7108;42.684;23.350;2023-04-04T01:06:02;93912.78;;;9.58;100.00
14067;BME280;7108;42.684;23.350;2023-04-04T01:08:29;93927.78;;;9.59;100.00
14067;BME280;7108;42.684;23.350;2023-04-04T01:10:54;93936.63;;;9.67;100.00
14067;BME280;7108;42.684;23.350;2023-04-04T01:13:21;93927.03;;;9.69;100.00
14067;BME280;7108;42.684;23.350;2023-04-04T01:15:47;93922.41;;;9.77;100.00
14067;BME280;7108;42.684;23.350;2023-04-04T01:18:14;93920.88;;;9.79;100.00
14067;BME280;7108;42.684;23.350;2023-04-04T01:21:08;93921.28;;;9.81;100.00
14067;BME280;7108;42.684;23.350;2023-04-04T01:26:07;93922.81;;;9.82;100.00
14067;BME280;7108;42.684;23.350;2023-04-04T01:28:32;93929.34;;;9.81;100.00
14067;BME280;7108;42.684;23.350;2023-04-04T01:30:59;93940.88;;;9.88;100.00
14067;BME280;7108;42.684;23.350;2023-04-04T01:33:35;93935.50;;;9.85;100.00
14067;BME280;7108;42.684;23.350;2023-04-04T01:36:24;93926.66;;;9.84;100.00
14067;BME280;7108;42.684;23.350;2023-04-04T01:39:09;93923.97;;;9.84;100.00
14067;BME280;7108;42.684;23.350;2023-04-04T01:41:38;93940.47;;;9.83;100.00
14067;BME280;7108;42.684;23.350;2023-04-04T01:44:03;93934.72;;;9.74;100.00
14067;BME280;7108;42.684;23.350;2023-04-04T01:46:29;93930.88;;;9.75;100.00
14067;BME280;7108;42.684;23.350;2023-04-04T01:48:55;93915.88;;;9.77;100.00
14067;BME280;7108;42.684;23.350;2023-04-04T01:51:21;93912.44;;;9.74;100.00
14067;BME280;7108;42.684;23.350;2023-04-04T01:53:48;93912.81;;;9.76;100.00
14067;BME280;7108;42.684;23.350;2023-04-04T01:56:13;93902.03;;;9.62;100.00
14067;BME280;7108;42.684;23.350;2023-04-04T01:58:38;93903.56;;;9.56;100.00
14067;BME280;7108;42.684;23.350;2023-04-04T02:01:04;93900.88;;;9.42;100.00
14067;BME280;7108;42.684;23.350;2023-04-04T02:03:30;93902.00;;;9.34;100.00
14067;BME280;7108;42.684;23.350;2023-04-04T02:05:56;93900.84;;;9.31;100.00
14067;BME280;7108;42.684;23.350;2023-04-04T02:08:21;93903.53;;;9.24;100.00
14067;BME280;7108;42.684;23.350;2023-04-04T02:10:47;93908.13;;;9.27;100.00
14067;BME280;7108;42.684;23.350;2023-04-04T02:13:13;93894.31;;;9.22;100.00
14067;BME280;7108;42.684;23.350;2023-04-04T02:15:38;93904.28;;;9.21;100.00
14067;BME280;7108;42.684;23.350;2023-04-04T02:18:04;93903.13;;;9.22;100.00
14067;BME280;7108;42.684;23.350;2023-04-04T02:20:29;93888.13;;;9.11;100.00
14067;BME280;7108;42.684;23.350;2023-04-04T02:22:55;93893.50;;;9.18;100.00
14067;BME280;7108;42.684;23.350;2023-04-04T02:25:22;93891.97;;;9.13;100.00
14067;BME280;7108;42.684;23.350;2023-04-04T02:27:48;93890.84;;;9.14;100.00
14067;BME280;7108;42.684;23.350;2023-04-04T02:30:13;93890.03;;;9.11;100.00
14067;BME280;7108;42.684;23.350;2023-04-04T02:32:39;93883.91;;;9.10;100.00
14067;BME280;7108;42.684;23.350;2023-04-04T02:35:05;93885.06;;;9.09;100.00
14067;BME280;7108;42.684;23.350;2023-04-04T02:37:31;93880.84;;;9.12;100.00
14067;BME280;7108;42.684;23.350;2023-04-04T02:39:56;93883.13;;;9.06;100.00
14067;BME280;7108;42.684;23.350;2023-04-04T02:42:22;93892.72;;;9.04;100.00
14067;BME280;7108;42.684;23.350;2023-04-04T02:44:47;93886.19;;;8.98;100.00
14067;BME280;7108;42.684;23.350;2023-04-04T02:47:12;93880.38;;;8.92;100.00
14067;BME280;7108;42.684;23.350;2023-04-04T02:49:38;93895.38;;;8.97;100.00
14067;BME280;7108;42.684;23.350;2023-04-04T02:52:03;93900.38;;;8.98;100.00
14067;BME280;7108;42.684;23.350;2023-04-04T02:54:29;93894.59;;;9.00;100.00
14067;BME280;7108;42.684;23.350;2023-04-04T02:56:54;93901.16;;;9.02;100.00
14067;BME280;7108;42.684;23.350;2023-04-04T02:59:20;93897.72;;;9.09;100.00
14067;BME280;7108;42.684;23.350;2023-04-04T03:01:46;93894.25;;;9.08;100.00
14067;BME280;7108;42.684;23.350;2023-04-04T03:04:11;93892.75;;;9.07;100.00
14067;BME280;7108;42.684;23.350;2023-04-04T03:06:38;93891.56;;;9.08;100.00
14067;BME280;7108;42.684;23.350;2023-04-04T03:09:05;93898.88;;;9.08;100.00
14067;BME280;7108;42.684;23.350;2023-04-04T03:11:30;93896.19;;;9.18;100.00
14067;BME280;7108;42.684;23.350;2023-04-04T03:13:56;93900.06;;;9.27;100.00
14067;BME280;7108;42.684;23.350;2023-04-04T03:16:21;93899.31;;;9.37;100.00
14067;BME280;7108;42.684;23.350;2023-04-04T03:18:47;93891.63;;;9.32;100.00
14067;BME280;7108;42.684;23.350;2023-04-04T03:21:13;93906.25;;;9.45;100.00
14067;BME280;7108;42.684;23.350;2023-04-04T03:23:39;93902.78;;;9.48;100.00
14067;BME280;7108;42.684;23.350;2023-04-04T03:26:04;93900.13;;;9.59;100.00
14067;BME280;7108;42.684;23.350;2023-04-04T03:28:30;93899.38;;;9.69;100.00
14067;BME280;7108;42.684;23.350;2023-04-04T03:30:55;93895.91;;;9.68;100.00
14067;BME280;7108;42.684;23.350;2023-04-04T03:33:20;93895.91;;;9.75;100.00
14067;BME280;7108;42.684;23.350;2023-04-04T03:35:46;93899.00;;;9.77;100.00
14067;BME280;7108;42.684;23.350;2023-04-04T03:38:12;93898.22;;;9.77;100.00
14067;BME280;7108;42.684;23.350;2023-04-04T03:40:37;93905.53;;;9.79;100.00
14067;BME280;7108;42.684;23.350;2023-04-04T03:43:06;93901.69;;;9.77;100.00
14067;BME280;7108;42.684;23.350;2023-04-04T03:45:35;93903.59;;;9.87;100.00
14067;BME280;7108;42.684;23.350;2023-04-04T03:48:01;93905.91;;;9.92;100.00
14067;BME280;7108;42.684;23.350;2023-04-04T03:50:26;93900.91;;;9.94;100.00
14067;BME280;7108;42.684;23.350;2023-04-04T03:52:52;93893.59;;;9.91;100.00
14067;BME280;7108;42.684;23.350;2023-04-04T03:55:17;93892.47;;;9.92;100.00
14067;BME280;7108;42.684;23.350;2023-04-04T03:57:43;93909.75;;;10.01;100.00
14067;BME280;7108;42.684;23.350;2023-04-04T04:00:09;93899.03;;;9.98;100.00
14067;BME280;7108;42.684;23.350;2023-04-04T04:02:35;93895.50;;;9.94;100.00
14067;BME280;7108;42.684;23.350;2023-04-04T04:05:00;93911.31;;;10.02;100.00
14067;BME280;7108;42.684;23.350;2023-04-04T04:07:26;93895.94;;;10.03;100.00
14067;BME280;7108;42.684;23.350;2023-04-04T04:09:51;93899.00;;;10.05;100.00
14067;BME280;7108;42.684;23.350;2023-04-04T04:12:17;93895.16;;;10.09;100.00
14067;BME280;7108;42.684;23.350;2023-04-04T04:14:42;93895.16;;;10.06;100.00
14067;BME280;7108;42.684;23.350;2023-04-04T04:17:08;93893.25;;;9.99;100.00
14067;BME280;7108;42.684;23.350;2023-04-04T04:19:33;93895.16;;;10.06;100.00
14067;BME280;7108;42.684;23.350;2023-04-04T04:21:59;93889.38;;;10.04;100.00
14067;BME280;7108;42.684;23.350;2023-04-04T04:24:24;93900.19;;;10.00;100.00
14067;BME280;7108;42.684;23.350;2023-04-04T04:26:50;93900.88;;;9.90;100.00
14067;BME280;7108;42.684;23.350;2023-04-04T04:29:15;93909.75;;;9.91;100.00
14067;BME280;7108;42.684;23.350;2023-04-04T04:31:41;93919.72;;;9.94;100.00
14067;BME280;7108;42.684;23.350;2023-04-04T04:34:06;93919.72;;;9.94;100.00
14067;BME280;7108;42.684;23.350;2023-04-04T04:36:35;93924.38;;;10.00;100.00
14067;BME280;7108;42.684;23.350;2023-04-04T04:39:01;93920.53;;;10.01;100.00
14067;BME280;7108;42.684;23.350;2023-04-04T04:41:27;93932.44;;;10.07;100.00
14067;BME280;7108;42.684;23.350;2023-04-04T04:43:54;93930.53;;;10.08;100.00
14067;BME280;7108;42.684;23.350;2023-04-04T04:46:19;93940.53;;;10.14;100.00
14067;BME280;7108;42.684;23.350;2023-04-04T04:48:45;93940.91;;;10.13;100.00
14067;BME280;7108;42.684;23.350;2023-04-04T04:51:11;93930.50;;;10.11;100.00
14067;BME280;7108;42.684;23.350;2023-04-04T04:53:38;93945.91;;;10.11;100.00
14067;BME280;7108;42.684;23.350;2023-04-04T04:56:03;93947.81;;;10.03;100.00
14067;BME280;7108;42.684;23.350;2023-04-04T04:58:29;93942.44;;;10.00;100.00
14067;BME280;7108;42.684;23.350;2023-04-04T05:00:57;93950.13;;;10.05;100.00
14067;BME280;7108;42.684;23.350;2023-04-04T05:03:23;93953.59;;;10.05;100.00
14067;BME280;7108;42.684;23.350;2023-04-04T05:05:49;93945.91;;;10.07;100.00
14067;BME280;7108;42.684;23.350;2023-04-04T05:08:17;93963.97;;;10.00;100.00
14067;BME280;7108;42.684;23.350;2023-04-04T05:10:43;93963.56;;;9.94;100.00
14067;BME280;7108;42.684;23.350;2023-04-04T05:13:08;93964.75;;;9.97;100.00
14067;BME280;7108;42.684;23.350;2023-04-04T05:15:34;93960.06;;;9.90;100.00
14067;BME280;7108;42.684;23.350;2023-04-04T05:18:04;93970.84;;;9.80;100.00
14067;BME280;7108;42.684;23.350;2023-04-04T05:20:29;93972.38;;;9.88;100.00
14067;BME280;7108;42.684;23.350;2023-04-04T05:22:55;93975.44;;;9.83;100.00
14067;BME280;7108;42.684;23.350;2023-04-04T05:25:20;93975.03;;;9.71;100.00
14067;BME280;7108;42.684;23.350;2023-04-04T05:27:46;93972.38;;;9.84;100.00
14067;BME280;7108;42.684;23.350;2023-04-04T05:30:13;93980.06;;;9.82;100.00
14067;BME280;7108;42.684;23.350;2023-04-04T05:32:39;93976.59;;;9.78;100.00
14067;BME280;7108;42.684;23.350;2023-04-04T05:35:04;93984.28;;;9.80;100.00
14067;BME280;7108;42.684;23.350;2023-04-04T05:37:30;93983.13;;;9.81;100.00
14067;BME280;7108;42.684;23.350;2023-04-04T05:39:56;93989.66;;;9.90;100.00
14067;BME280;7108;42.684;23.350;2023-04-04T05:42:21;93984.63;;;9.68;100.00
14067;BME280;7108;42.684;23.350;2023-04-04T05:44:47;93993.50;;;9.72;100.00
14067;BME280;7108;42.684;23.350;2023-04-04T05:47:12;93993.06;;;9.60;100.00
14067;BME280;7108;42.684;23.350;2023-04-04T05:49:38;93990.78;;;9.62;100.00
14067;BME280;7108;42.684;23.350;2023-04-04T05:52:03;93991.19;;;9.64;100.00
14067;BME280;7108;42.684;23.350;2023-04-04T05:54:29;93993.88;;;9.71;100.00
14067;BME280;7108;42.684;23.350;2023-04-04T05:56:54;93994.66;;;9.75;100.00
14067;BME280;7108;42.684;23.350;2023-04-04T05:59:20;93996.97;;;9.76;100.00
14067;BME280;7108;42.684;23.350;2023-04-04T06:01:46;93991.56;;;9.73;100.00
14067;BME280;7108;42.684;23.350;2023-04-04T06:04:11;93996.19;;;9.79;100.00
14067;BME280;7108;42.684;23.350;2023-04-04T06:06:37;94005.03;;;9.76;100.00
14067;BME280;7108;42.684;23.350;2023-04-04T06:09:03;93994.28;;;9.76;100.00
14067;BME280;7108;42.684;23.350;2023-04-04T06:11:28;94006.59;;;9.91;100.00
14067;BME280;7108;42.684;23.350;2023-04-04T06:13:54;94008.13;;;9.88;100.00
14067;BME280;7108;42.684;23.350;2023-04-04T06:16:20;94004.66;;;9.84;100.00
14067;BME280;7108;42.684;23.350;2023-04-04T06:18:46;93996.19;;;9.82;100.00
14067;BME280;7108;42.684;23.350;2023-04-04T06:21:12;94003.91;;;9.91;100.00
14067;BME280;7108;42.684;23.350;2023-04-04T06:23:38;94009.69;;;9.96;100.00
14067;BME280;7108;42.684;23.350;2023-04-04T06:26:04;94010.03;;;9.91;100.00
14067;BME280;7108;42.684;23.350;2023-04-04T06:28:30;94014.28;;;9.82;100.00
14067;BME280;7108;42.684;23.350;2023-04-04T06:30:56;94020.44;;;9.89;100.00
14067;BME280;7108;42.684;23.350;2023-04-04T06:33:21;94025.03;;;9.78;100.00
14067;BME280;7108;42.684;23.350;2023-04-04T06:35:47;94017.25;;;9.53;100.00
14067;BME280;7108;42.684;23.350;2023-04-04T06:38:12;94036.06;;;9.46;100.00
14067;BME280;7108;42.684;23.350;2023-04-04T06:40:38;94051.75;;;9.37;100.00
14067;BME280;7108;42.684;23.350;2023-04-04T06:43:03;94050.41;;;9.00;100.00
14067;BME280;7108;42.684;23.350;2023-04-04T06:45:29;94061.38;;;8.24;100.00
14067;BME280;7108;42.684;23.350;2023-04-04T06:47:58;94056.34;;;7.82;100.00
14067;BME280;7108;42.684;23.350;2023-04-04T06:50:24;94063.88;;;7.70;100.00
14067;BME280;7108;42.684;23.350;2023-04-04T06:52:50;94069.56;;;7.32;100.00
14067;BME280;7108;42.684;23.350;2023-04-04T06:55:16;94072.19;;;7.29;100.00
14067;BME280;7108;42.684;23.350;2023-04-04T06:57:42;94066.44;;;6.98;100.00
14067;BME280;7108;42.684;23.350;2023-04-04T07:00:08;94080.28;;;7.03;100.00
14067;BME280;7108;42.684;23.350;2023-04-04T07:02:34;94101.38;;;7.05;100.00
14067;BME280;7108;42.684;23.350;2023-04-04T07:05:00;94112.09;;;7.08;100.00
14067;BME280;7108;42.684;23.350;2023-04-04T07:07:26;94107.59;;;6.86;100.00
14067;BME280;7108;42.684;23.350;2023-04-04T07:09:51;94113.78;;;6.90;100.00
14067;BME280;7108;42.684;23.350;2023-04-04T07:12:17;94113.03;;;6.93;100.00
14067;BME280;7108;42.684;23.350;2023-04-04T07:14:42;94122.06;;;6.82;100.00
14067;BME280;7108;42.684;23.350;2023-04-04T07:17:08;94126.56;;;6.52;100.00
14067;BME280;7108;42.684;23.350;2023-04-04T07:19:33;94134.13;;;6.24;100.00
14067;BME280;7108;42.684;23.350;2023-04-04T07:21:59;94143.19;;;6.20;100.00
14067;BME280;7108;42.684;23.350;2023-04-04T07:24:24;94145.84;;;6.16;100.00
14067;BME280;7108;42.684;23.350;2023-04-04T07:26:51;94158.22;;;5.83;100.00
14067;BME280;7108;42.684;23.350;2023-04-04T07:29:16;94150.22;;;5.68;100.00
14067;BME280;7108;42.684;23.350;2023-04-04T07:31:42;94166.34;;;5.90;100.00
14067;BME280;7108;42.684;23.350;2023-04-04T07:34:08;94158.59;;;5.85;100.00
14067;BME280;7108;42.684;23.350;2023-04-04T07:36:35;94164.03;;;5.88;100.00
14067;BME280;7108;42.684;23.350;2023-04-04T07:39:01;94173.63;;;5.74;100.00
14067;BME280;7108;42.684;23.350;2023-04-04T07:41:26;94168.25;;;5.89;100.00
14067;BME280;7108;42.684;23.350;2023-04-04T07:43:52;94175.84;;;5.87;100.00
14067;BME280;7108;42.684;23.350;2023-04-04T07:46:17;94178.16;;;5.89;100.00
14067;BME280;7108;42.684;23.350;2023-04-04T07:48:44;94170.91;;;5.89;100.00
14067;BME280;7108;42.684;23.350;2023-04-04T07:51:09;94174.63;;;5.85;100.00
14067;BME280;7108;42.684;23.350;2023-04-04T07:53:35;94170.13;;;5.70;100.00
14067;BME280;7108;42.684;23.350;2023-04-04T07:56:00;94177.50;;;5.58;100.00
14067;BME280;7108;42.684;23.350;2023-04-04T07:58:32;94183.88;;;5.53;100.00
14067;BME280;7108;42.684;23.350;2023-04-04T08:00:59;94182.75;;;5.35;100.00
14067;BME280;7108;42.684;23.350;2023-04-04T08:03:24;94206.16;;;5.42;100.00
14067;BME280;7108;42.684;23.350;2023-04-04T08:05:50;94206.81;;;5.20;100.00
14067;BME280;7108;42.684;23.350;2023-04-04T08:08:16;94210.97;;;5.18;100.00
14067;BME280;7108;42.684;23.350;2023-04-04T08:10:43;94214.00;;;5.16;100.00
14067;BME280;7108;42.684;23.350;2023-04-04T08:13:09;94210.34;;;5.24;100.00
14067;BME280;7108;42.684;23.350;2023-04-04T08:15:35;94210.78;;;5.26;100.00
14067;BME280;7108;42.684;23.350;2023-04-04T08:18:00;94209.03;;;5.33;100.00
14067;BME280;7108;42.684;23.350;2023-04-04T08:20:26;94220.63;;;5.41;100.00
14067;BME280;7108;42.684;23.350;2023-04-04T08:22:52;94227.91;;;5.40;100.00
14067;BME280;7108;42.684;23.350;2023-04-04T08:25:17;94215.69;;;5.24;100.00
14067;BME280;7108;42.684;23.350;2023-04-04T08:27:44;94224.28;;;5.33;100.00
14067;BME280;7108;42.684;23.350;2023-04-04T08:30:10;94226.69;;;5.38;100.00
14067;BME280;7108;42.684;23.350;2023-04-04T08:32:36;94236.13;;;5.51;100.00
14067;BME280;7108;42.684;23.350;2023-04-04T08:35:02;94240.84;;;5.57;100.00
14067;BME280;7108;42.684;23.350;2023-04-04T08:37:29;94244.41;;;5.46;100.00
14067;BME280;7108;42.684;23.350;2023-04-04T08:39:55;94240.97;;;5.45;100.00
14067;BME280;7108;42.684;23.350;2023-04-04T08:42:21;94246.34;;;5.30;100.00
14067;BME280;7108;42.684;23.350;2023-04-04T08:44:52;94238.09;;;5.19;100.00
14067;BME280;7108;42.684;23.350;2023-04-04T08:47:18;94232.25;;;5.14;100.00
14067;BME280;7108;42.684;23.350;2023-04-04T08:49:46;94236.47;;;5.15;100.00
14067;BME280;7108;42.684;23.350;2023-04-04T08:52:16;94249.47;;;5.17;100.00
14067;BME280;7108;42.684;23.350;2023-04-04T08:54:46;94255.59;;;5.17;100.00
14067;BME280;7108;42.684;23.350;2023-04-04T08:57:12;94260.94;;;5.02;100.00
14067;BME280;7108;42.684;23.350;2023-04-04T08:59:38;94269.38;;;5.04;100.00
14067;BME280;7108;42.684;23.350;2023-04-04T09:02:44;94272.03;;;5.04;100.00
14067;BME280;7108;42.684;23.350;2023-04-04T09:05:13;94262.13;;;5.04;100.00
14067;BME280;7108;42.684;23.350;2023-04-04T09:07:40;94282.19;;;5.14;100.00
14067;BME280;7108;42.684;23.350;2023-04-04T09:10:10;94276.09;;;5.13;100.00
14067;BME280;7108;42.684;23.350;2023-04-04T09:12:36;94285.47;;;5.07;100.00
14067;BME280;7108;42.684;23.350;2023-04-04T09:15:04;94278.16;;;4.89;100.00
14067;BME280;7108;42.684;23.350;2023-04-04T09:17:30;94279.09;;;5.12;100.00
14067;BME280;7108;42.684;23.350;2023-04-04T09:19:55;94292.00;;;5.25;100.00
14067;BME280;7108;42.684;23.350;2023-04-04T09:22:21;94289.84;;;5.15;100.00
14067;BME280;7108;42.684;23.350;2023-04-04T09:24:47;94283.22;;;5.09;100.00
14067;BME280;7108;42.684;23.350;2023-04-04T09:27:14;94289.72;;;5.08;100.00
14067;BME280;7108;42.684;23.350;2023-04-04T09:29:40;94287.97;;;4.85;100.00
14067;BME280;7108;42.684;23.350;2023-04-04T09:32:07;94294.53;;;4.87;100.00
14067;BME280;7108;42.684;23.350;2023-04-04T09:34:34;94307.41;;;5.01;100.00
14067;BME280;7108;42.684;23.350;2023-04-04T09:36:59;94300.13;;;5.13;100.00
14067;BME280;7108;42.684;23.350;2023-04-04T09:39:27;94298.97;;;5.14;100.00
14067;BME280;7108;42.684;23.350;2023-04-04T09:41:52;94303.06;;;5.08;100.00
14067;BME280;7108;42.684;23.350;2023-04-04T09:44:18;94285.97;;;5.13;100.00
14067;BME280;7108;42.684;23.350;2023-04-04T09:46:43;94311.88;;;5.27;100.00
14067;BME280;7108;42.684;23.350;2023-04-04T09:49:10;94304.25;;;4.95;100.00
14067;BME280;7108;42.684;23.350;2023-04-04T09:51:37;94302.16;;;4.73;100.00
14067;BME280;7108;42.684;23.350;2023-04-04T09:54:03;94299.66;;;4.65;100.00
14067;BME280;7108;42.684;23.350;2023-04-04T09:56:32;94304.88;;;4.61;100.00
14067;BME280;7108;42.684;23.350;2023-04-04T09:58:58;94305.69;;;4.62;100.00
14067;BME280;7108;42.684;23.350;2023-04-04T10:01:25;94296.47;;;4.75;100.00
14067;BME280;7108;42.684;23.350;2023-04-04T10:03:52;94304.72;;;4.70;100.00
14067;BME280;7108;42.684;23.350;2023-04-04T10:06:19;94306.63;;;4.69;100.00
14067;BME280;7108;42.684;23.350;2023-04-04T10:08:45;94309.56;;;4.80;100.00
14067;BME280;7108;42.684;23.350;2023-04-04T10:11:11;94312.56;;;4.78;100.00
14067;BME280;7108;42.684;23.350;2023-04-04T10:13:37;94316.03;;;4.79;100.00
14067;BME280;7108;42.684;23.350;2023-04-04T10:16:08;94316.88;;;4.98;100.00
14067;BME280;7108;42.684;23.350;2023-04-04T10:18:35;94316.63;;;5.03;100.00
14067;BME280;7108;42.684;23.350;2023-04-04T10:21:03;94315.38;;;4.97;100.00
14067;BME280;7108;42.684;23.350;2023-04-04T10:23:29;94328.88;;;5.04;100.00
14067;BME280;7108;42.684;23.350;2023-04-04T10:25:56;94331.63;;;4.92;100.00
14067;BME280;7108;42.684;23.350;2023-04-04T10:28:22;94328.53;;;4.90;100.00
14067;BME280;7108;42.684;23.350;2023-04-04T10:31:14;94338.84;;;4.92;100.00
14067;BME280;7108;42.684;23.350;2023-04-04T10:36:30;94343.78;;;4.90;100.00
14067;BME280;7108;42.684;23.350;2023-04-04T10:41:34;94343.56;;;4.83;100.00
14067;BME280;7108;42.684;23.350;2023-04-04T10:44:08;94350.03;;;4.82;100.00
14067;BME280;7108;42.684;23.350;2023-04-04T10:46:38;94356.13;;;4.82;100.00
14067;BME280;7108;42.684;23.350;2023-04-04T10:49:05;94354.25;;;4.83;100.00
14067;BME280;7108;42.684;23.350;2023-04-04T10:51:32;94347.72;;;4.96;100.00
14067;BME280;7108;42.684;23.350;2023-04-04T10:53:57;94345.91;;;4.84;100.00
14067;BME280;7108;42.684;23.350;2023-04-04T10:56:23;94354.66;;;4.69;100.00
14067;BME280;7108;42.684;23.350;2023-04-04T10:58:49;94355.88;;;4.72;100.00
14067;BME280;7108;42.684;23.350;2023-04-04T11:01:15;94361.81;;;4.81;100.00
14067;BME280;7108;42.684;23.350;2023-04-04T11:07:03;94372.19;;;4.98;100.00
14067;BME280;7108;42.684;23.350;2023-04-04T11:12:19;94367.06;;;4.77;100.00
14067;BME280;7108;42.684;23.350;2023-04-04T11:20:15;94369.31;;;4.75;100.00
14067;BME280;7108;42.684;23.350;2023-04-04T11:22:41;94372.69;;;4.88;100.00
14067;BME280;7108;42.684;23.350;2023-04-04T11:27:49;94376.00;;;4.85;100.00
14067;BME280;7108;42.684;23.350;2023-04-04T11:30:17;94391.47;;;4.91;100.00
14067;BME280;7108;42.684;23.350;2023-04-04T11:32:47;94393.19;;;4.99;100.00
14067;BME280;7108;42.684;23.350;2023-04-04T11:35:13;94391.97;;;4.81;100.00
14067;BME280;7108;42.684;23.350;2023-04-04T11:40:18;94401.16;;;4.84;100.00
14067;BME280;7108;42.684;23.350;2023-04-04T11:42:43;94394.72;;;5.00;100.00
14067;BME280;7108;42.684;23.350;2023-04-04T11:45:17;94391.38;;;5.03;100.00
14067;BME280;7108;42.684;23.350;2023-04-04T11:47:46;94397.59;;;5.07;100.00
14067;BME280;7108;42.684;23.350;2023-04-04T11:50:14;94389.56;;;4.92;100.00
14067;BME280;7108;42.684;23.350;2023-04-04T11:52:40;94394.94;;;4.80;100.00
14067;BME280;7108;42.684;23.350;2023-04-04T11:55:19;94387.63;;;4.77;100.00
14067;BME280;7108;42.684;23.350;2023-04-04T11:57:46;94393.66;;;4.74;100.00
14067;BME280;7108;42.684;23.350;2023-04-04T12:00:32;94398.66;;;4.48;100.00
14067;BME280;7108;42.684;23.350;2023-04-04T12:02:59;94402.03;;;4.33;100.00
14067;BME280;7108;42.684;23.350;2023-04-04T12:05:25;94394.34;;;4.44;100.00
14067;BME280;7108;42.684;23.350;2023-04-04T12:07:50;94397.44;;;4.46;100.00
14067;BME280;7108;42.684;23.350;2023-04-04T12:10:17;94396.28;;;4.58;100.00
14067;BME280;7108;42.684;23.350;2023-04-04T12:12:46;94397.44;;;4.46;100.00
14067;BME280;7108;42.684;23.350;2023-04-04T12:15:15;94403.09;;;4.44;100.00
14067;BME280;7108;42.684;23.350;2023-04-04T12:17:41;94403.75;;;4.53;100.00
14067;BME280;7108;42.684;23.350;2023-04-04T12:20:14;94405.25;;;4.66;100.00
14067;BME280;7108;42.684;23.350;2023-04-04T12:22:40;94398.56;;;4.72;100.00
14067;BME280;7108;42.684;23.350;2023-04-04T12:25:06;94402.38;;;4.59;100.00
14067;BME280;7108;42.684;23.350;2023-04-04T12:27:32;94400.53;;;4.48;100.00
14067;BME280;7108;42.684;23.350;2023-04-04T12:29:59;94402.97;;;4.53;100.00
14067;BME280;7108;42.684;23.350;2023-04-04T12:32:25;94405.50;;;4.61;100.00
14067;BME280;7108;42.684;23.350;2023-04-04T12:34:51;94405.50;;;4.61;100.00
14067;BME280;7108;42.684;23.350;2023-04-04T12:37:17;94413.72;;;4.56;100.00
14067;BME280;7108;42.684;23.350;2023-04-04T12:39:47;94416.38;;;4.29;100.00
14067;BME280;7108;42.684;23.350;2023-04-04T12:42:23;94421.44;;;4.06;100.00
14067;BME280;7108;42.684;23.350;2023-04-04T12:44:50;94418.06;;;4.21;100.00
14067;BME280;7108;42.684;23.350;2023-04-04T12:47:16;94417.50;;;4.28;100.00
14067;BME280;7108;42.684;23.350;2023-04-04T12:49:46;94421.47;;;4.34;100.00
14067;BME280;7108;42.684;23.350;2023-04-04T12:52:20;94418.56;;;4.39;100.00
14067;BME280;7108;42.684;23.350;2023-04-04T12:54:46;94420.91;;;4.28;100.00
14067;BME280;7108;42.684;23.350;2023-04-04T12:57:17;94418.94;;;4.25;100.00
14067;BME280;7108;42.684;23.350;2023-04-04T12:59:46;94424.97;;;4.10;100.00
14067;BME280;7108;42.684;23.350;2023-04-04T13:02:15;94414.28;;;4.22;100.00
14067;BME280;7108;42.684;23.350;2023-04-04T13:04:51;94425.94;;;4.30;100.00
14067;BME280;7108;42.684;23.350;2023-04-04T13:07:27;94434.16;;;4.25;100.00
14067;BME280;7108;42.684;23.350;2023-04-04T13:10:03;94440.16;;;4.22;100.00
14067;BME280;7108;42.684;23.350;2023-04-04T13:12:55;94449.72;;;4.11;100.00
14067;BME280;7108;42.684;23.350;2023-04-04T13:15:23;94446.31;;;3.98;100.00
14067;BME280;7108;42.684;23.350;2023-04-04T13:18:23;94456.31;;;4.01;100.00
14067;BME280;7108;42.684;23.350;2023-04-04T13:20:53;94454.94;;;4.07;100.00
14067;BME280;7108;42.684;23.350;2023-04-04T13:23:19;94455.50;;;4.01;100.00